PWSweather.com
Personal Weather Stations
Station Observations
IVENETOL9
Brugine, BrugineIT 35020

BrugineBrugineIT 35020

Lat: 45.2975, Lon: 11.9962777

Elevation: 19

Station Type: Davis Vantage Pro2 Plus

http://www.meteobrugine.it/

Latest ConditionsUpdated 4:45:34 PM GMT+01:01 Wednesday, Aug 24, 2016
Currently Today's Max Today's Min Today's Average
Temperature 82.6°F28.1°C 83.2°F28.4°C 61.2°F16.2°C 72.5°F22.5°C
Dew Point 65.8°F18.8°C 67.2°F19.6°C 59.1°F15.1°C 62.4°F16.9°C
Winds Calm Calm 2.1 mph NNE3.4 kmh NNE - 0.2 mph 0.3 kmh
Wind Gusts -- 8.0 mph12.9 kmh - -
Humidity 57% 93% 52% 73%
Pressure 30.12 in1020.0 mb 30.23 in1023.7 mb 30.12 in1020.0 mb -
Hour Temp Dew Point Humidity Winds Wind Gusts Pressure Precip Precip Rate Daily Precip Total
04:45 PM 82.6°F28.1°C 65.8°F18.8°C 57% Calm Calm -- 30.12 in1020.0 mb - 0.00 in0.0 mm 0.00 in0.0 mm
04:30 PM 82.6°F28.1°C 66.8°F19.3°C 59% Calm Calm -- 30.12 in1020.0 mb - 0.00 in0.0 mm 0.00 in0.0 mm
04:15 PM 82.8°F28.2°C 66.5°F19.2°C 58% Calm Calm -- 30.12 in1020.0 mb - 0.00 in0.0 mm 0.00 in0.0 mm
04:00 PM 82.8°F28.2°C 65.5°F18.6°C 56% Calm Calm -- 30.13 in1020.3 mb - 0.00 in0.0 mm 0.00 in0.0 mm
03:45 PM 83.2°F28.4°C 65.9°F18.8°C 56% 0.1 mph W0.2 kmh W 1.0 mph1.6 kmh 30.13 in1020.3 mb - 0.00 in0.0 mm 0.00 in0.0 mm
03:30 PM 83.1°F28.4°C 66.8°F19.3°C 58% Calm Calm -- 30.13 in1020.3 mb - 0.00 in0.0 mm 0.00 in0.0 mm
03:15 PM 83.0°F28.3°C 67.2°F19.6°C 59% Calm Calm -- 30.13 in1020.3 mb - 0.00 in0.0 mm 0.00 in0.0 mm
03:00 PM 82.9°F28.3°C 66.6°F19.2°C 58% Calm Calm -- 30.14 in1020.7 mb - 0.00 in0.0 mm 0.00 in0.0 mm
02:45 PM 82.8°F28.2°C 65.5°F18.6°C 56% Calm Calm -- 30.14 in1020.7 mb - 0.00 in0.0 mm 0.00 in0.0 mm
02:30 PM 82.5°F28.1°C 65.2°F18.4°C 56% Calm Calm 1.0 mph1.6 kmh 30.15 in1021.0 mb - 0.00 in0.0 mm 0.00 in0.0 mm
02:15 PM 82.1°F27.8°C 64.8°F18.2°C 56% Calm Calm 1.0 mph1.6 kmh 30.15 in1021.0 mb - 0.00 in0.0 mm 0.00 in0.0 mm
02:00 PM 82.3°F27.9°C 64.5°F18.1°C 55% 0.4 mph NE0.6 kmh NE -- 30.15 in1021.0 mb - 0.00 in0.0 mm 0.00 in0.0 mm
01:45 PM 82.3°F27.9°C 63.4°F17.4°C 53% Calm Calm -- 30.16 in1021.3 mb - 0.00 in0.0 mm 0.00 in0.0 mm
01:30 PM 81.4°F27.4°C 64.2°F17.9°C 56% 0.2 mph NE0.3 kmh NE 2.0 mph3.2 kmh 30.16 in1021.3 mb - 0.00 in0.0 mm 0.00 in0.0 mm
01:15 PM 81.7°F27.6°C 63.4°F17.4°C 54% Calm Calm -- 30.16 in1021.3 mb - 0.00 in0.0 mm 0.00 in0.0 mm
01:00 PM 82.1°F27.8°C 62.7°F17.1°C 52% 1.3 mph N2.1 kmh N 5.0 mph8.0 kmh 30.17 in1021.7 mb - 0.00 in0.0 mm 0.00 in0.0 mm
12:45 PM 81.8°F27.7°C 63.5°F17.5°C 54% 1.5 mph NE2.4 kmh NE 4.0 mph6.4 kmh 30.17 in1021.7 mb - 0.00 in0.0 mm 0.00 in0.0 mm
12:30 PM 82.0°F27.8°C 65.2°F18.4°C 57% Calm Calm 1.0 mph1.6 kmh 30.18 in1022.0 mb - 0.00 in0.0 mm 0.00 in0.0 mm
12:15 PM 81.9°F27.7°C 63.1°F17.3°C 53% 1.1 mph N1.8 kmh N 4.0 mph6.4 kmh 30.18 in1022.0 mb - 0.00 in0.0 mm 0.00 in0.0 mm
12:00 PM 81.8°F27.7°C 63.0°F17.2°C 53% 0.4 mph E0.6 kmh E 5.0 mph8.0 kmh 30.18 in1022.0 mb - 0.00 in0.0 mm 0.00 in0.0 mm
11:45 AM 82.2°F27.9°C 65.4°F18.6°C 57% 0.1 mph NNE0.2 kmh NNE 1.0 mph1.6 kmh 30.19 in1022.4 mb - 0.00 in0.0 mm 0.00 in0.0 mm
11:30 AM 81.9°F27.7°C 64.7°F18.2°C 56% 1.4 mph NE2.3 kmh NE 7.0 mph11.3 kmh 30.20 in1022.7 mb - 0.00 in0.0 mm 0.00 in0.0 mm
11:15 AM 81.4°F27.4°C 63.7°F17.6°C 55% 2.1 mph NNE3.4 kmh NNE 6.0 mph9.7 kmh 30.20 in1022.7 mb - 0.00 in0.0 mm 0.00 in0.0 mm
11:00 AM 81.3°F27.4°C 64.1°F17.8°C 56% 2.0 mph NE3.2 kmh NE 8.0 mph12.9 kmh 30.20 in1022.7 mb - 0.00 in0.0 mm 0.00 in0.0 mm
10:45 AM 80.8°F27.1°C 64.1°F17.8°C 57% 1.4 mph NNE2.3 kmh NNE 8.0 mph12.9 kmh 30.20 in1022.7 mb - 0.00 in0.0 mm 0.00 in0.0 mm
10:30 AM 80.6°F27.0°C 64.9°F18.3°C 59% 0.9 mph NE1.4 kmh NE 7.0 mph11.3 kmh 30.21 in1023.0 mb - 0.00 in0.0 mm 0.00 in0.0 mm
10:15 AM 80.1°F26.7°C 64.5°F18.1°C 59% 1.5 mph NNE2.4 kmh NNE 8.0 mph12.9 kmh 30.21 in1023.0 mb - 0.00 in0.0 mm 0.00 in0.0 mm
10:00 AM 80.0°F26.7°C 63.4°F17.4°C 57% 0.9 mph N1.4 kmh N 3.0 mph4.8 kmh 30.22 in1023.4 mb - 0.00 in0.0 mm 0.00 in0.0 mm
09:45 AM 79.6°F26.4°C 63.5°F17.5°C 58% 0.1 mph E0.2 kmh E 1.0 mph1.6 kmh 30.22 in1023.4 mb - 0.00 in0.0 mm 0.00 in0.0 mm
09:30 AM 78.3°F25.7°C 63.7°F17.6°C 61% Calm Calm 1.0 mph1.6 kmh 30.22 in1023.4 mb - 0.00 in0.0 mm 0.00 in0.0 mm
09:15 AM 77.3°F25.2°C 63.7°F17.6°C 63% Calm Calm -- 30.22 in1023.4 mb - 0.00 in0.0 mm 0.00 in0.0 mm
09:00 AM 76.4°F24.7°C 63.8°F17.7°C 65% Calm Calm 1.0 mph1.6 kmh 30.22 in1023.4 mb - 0.00 in0.0 mm 0.00 in0.0 mm
08:45 AM 75.3°F24.1°C 64.9°F18.3°C 70% Calm Calm -- 30.22 in1023.4 mb - 0.00 in0.0 mm 0.00 in0.0 mm
08:30 AM 73.9°F23.3°C 64.7°F18.2°C 73% Calm Calm -- 30.22 in1023.4 mb - 0.00 in0.0 mm 0.00 in0.0 mm
08:15 AM 72.6°F22.6°C 64.2°F17.9°C 75% Calm Calm -- 30.22 in1023.4 mb - 0.00 in0.0 mm 0.00 in0.0 mm
08:00 AM 71.7°F22.1°C 64.1°F17.8°C 77% Calm Calm -- 30.22 in1023.4 mb - 0.00 in0.0 mm 0.00 in0.0 mm
07:45 AM 70.4°F21.3°C 63.2°F17.3°C 78% Calm Calm -- 30.22 in1023.4 mb - 0.00 in0.0 mm 0.00 in0.0 mm
07:30 AM 69.1°F20.6°C 63.4°F17.4°C 82% Calm Calm -- 30.22 in1023.4 mb - 0.00 in0.0 mm 0.00 in0.0 mm
07:15 AM 67.8°F19.9°C 62.8°F17.1°C 84% Calm Calm -- 30.21 in1023.0 mb - 0.00 in0.0 mm 0.00 in0.0 mm
07:00 AM 66.8°F19.3°C 62.1°F16.7°C 85% Calm Calm -- 30.21 in1023.0 mb - 0.00 in0.0 mm 0.00 in0.0 mm
06:45 AM 66.0°F18.9°C 61.4°F16.3°C 85% Calm Calm -- 30.21 in1023.0 mb - 0.00 in0.0 mm 0.00 in0.0 mm
06:30 AM 65.1°F18.4°C 61.1°F16.2°C 87% Calm Calm -- 30.21 in1023.0 mb - 0.00 in0.0 mm 0.00 in0.0 mm
06:15 AM 63.9°F17.7°C 60.6°F15.9°C 89% Calm Calm -- 30.20 in1022.7 mb - 0.00 in0.0 mm 0.00 in0.0 mm
06:00 AM 62.9°F17.2°C 59.9°F15.5°C 90% Calm Calm -- 30.20 in1022.7 mb - 0.00 in0.0 mm 0.00 in0.0 mm
05:45 AM 62.4°F16.9°C 59.7°F15.4°C 91% Calm Calm -- 30.20 in1022.7 mb - 0.00 in0.0 mm 0.00 in0.0 mm
05:30 AM 61.9°F16.6°C 59.2°F15.1°C 91% Calm Calm -- 30.20 in1022.7 mb - 0.00 in0.0 mm 0.00 in0.0 mm
05:15 AM 61.6°F16.4°C 59.3°F15.2°C 92% Calm Calm -- 30.20 in1022.7 mb - 0.00 in0.0 mm 0.00 in0.0 mm
05:00 AM 61.5°F16.4°C 59.2°F15.1°C 92% Calm Calm -- 30.20 in1022.7 mb - 0.00 in0.0 mm 0.00 in0.0 mm
04:45 AM 61.2°F16.2°C 59.2°F15.1°C 93% Calm Calm -- 30.19 in1022.4 mb - 0.00 in0.0 mm 0.00 in0.0 mm
04:30 AM 61.2°F16.2°C 59.2°F15.1°C 93% Calm Calm -- 30.19 in1022.4 mb - 0.00 in0.0 mm 0.00 in0.0 mm
04:15 AM 61.5°F16.4°C 59.2°F15.1°C 92% Calm Calm -- 30.19 in1022.4 mb - 0.00 in0.0 mm 0.00 in0.0 mm
04:00 AM 61.6°F16.4°C 59.3°F15.2°C 92% Calm Calm -- 30.19 in1022.4 mb - 0.00 in0.0 mm 0.00 in0.0 mm
03:45 AM 61.8°F16.6°C 59.5°F15.3°C 92% Calm Calm -- 30.20 in1022.7 mb - 0.00 in0.0 mm 0.00 in0.0 mm
03:30 AM 62.2°F16.8°C 59.5°F15.3°C 91% Calm Calm -- 30.20 in1022.7 mb - 0.00 in0.0 mm 0.00 in0.0 mm
03:15 AM 62.3°F16.8°C 59.3°F15.2°C 90% Calm Calm -- 30.20 in1022.7 mb - 0.00 in0.0 mm 0.00 in0.0 mm
03:00 AM 62.5°F16.9°C 59.5°F15.3°C 90% Calm Calm -- 30.20 in1022.7 mb - 0.00 in0.0 mm 0.00 in0.0 mm
02:45 AM 62.6°F17.0°C 59.6°F15.3°C 90% Calm Calm -- 30.21 in1023.0 mb - 0.00 in0.0 mm 0.00 in0.0 mm
02:30 AM 62.7°F17.1°C 59.4°F15.2°C 89% Calm Calm -- 30.21 in1023.0 mb - 0.00 in0.0 mm 0.00 in0.0 mm
02:15 AM 62.6°F17.0°C 59.3°F15.2°C 89% Calm Calm -- 30.21 in1023.0 mb - 0.00 in0.0 mm 0.00 in0.0 mm
02:00 AM 62.7°F17.1°C 59.4°F15.2°C 89% Calm Calm -- 30.22 in1023.4 mb - 0.00 in0.0 mm 0.00 in0.0 mm
01:46 AM 62.9°F17.2°C 59.3°F15.2°C 88% Calm Calm -- 30.22 in1023.4 mb - 0.00 in0.0 mm 0.00 in0.0 mm
01:30 AM 63.2°F17.3°C 59.3°F15.2°C 87% Calm Calm -- 30.22 in1023.4 mb - 0.00 in0.0 mm 0.00 in0.0 mm
01:15 AM 63.0°F17.2°C 59.4°F15.2°C 88% Calm Calm -- 30.22 in1023.4 mb - 0.00 in0.0 mm 0.00 in0.0 mm
01:00 AM 63.0°F17.2°C 59.1°F15.1°C 87% Calm Calm -- 30.23 in1023.7 mb - 0.00 in0.0 mm 0.00 in0.0 mm
12:45 AM 63.0°F17.2°C 59.4°F15.2°C 88% Calm Calm -- 30.22 in1023.4 mb - 0.00 in0.0 mm 0.00 in0.0 mm
12:30 AM 63.7°F17.6°C 59.1°F15.1°C 85% Calm Calm -- 30.22 in1023.4 mb - 0.00 in0.0 mm 0.00 in0.0 mm
12:15 AM 63.9°F17.7°C 59.3°F15.2°C 85% Calm Calm -- 30.22 in1023.4 mb - 0.00 in0.0 mm 0.00 in0.0 mm
12:00 AM 64.0°F17.8°C 59.4°F15.2°C 85% Calm Calm -- 30.22 in1023.4 mb - 0.00 in0.0 mm 0.00 in0.0 mm